sensor_id;sensor_type;location;lat;lon;timestamp;temperature;humidity
23385;DHT22;11865;45.394;10.978;2023-02-24T00:01:44;7.40;99.90
23385;DHT22;11865;45.394;10.978;2023-02-24T00:04:12;7.30;99.90
23385;DHT22;11865;45.394;10.978;2023-02-24T00:06:40;7.20;99.90
23385;DHT22;11865;45.394;10.978;2023-02-24T00:11:36;7.20;99.90
23385;DHT22;11865;45.394;10.978;2023-02-24T00:14:08;7.30;99.90
23385;DHT22;11865;45.394;10.978;2023-02-24T00:16:35;7.20;99.90
23385;DHT22;11865;45.394;10.978;2023-02-24T00:19:06;7.30;99.90
23385;DHT22;11865;45.394;10.978;2023-02-24T00:21:34;7.40;99.90
23385;DHT22;11865;45.394;10.978;2023-02-24T00:24:01;7.50;99.90
23385;DHT22;11865;45.394;10.978;2023-02-24T00:26:29;7.60;99.90
23385;DHT22;11865;45.394;10.978;2023-02-24T00:28:56;7.60;99.90
23385;DHT22;11865;45.394;10.978;2023-02-24T00:31:26;7.60;99.90
23385;DHT22;11865;45.394;10.978;2023-02-24T00:33:57;7.50;99.90
23385;DHT22;11865;45.394;10.978;2023-02-24T00:36:26;7.50;99.90
23385;DHT22;11865;45.394;10.978;2023-02-24T00:39:04;7.70;99.90
23385;DHT22;11865;45.394;10.978;2023-02-24T00:41:39;7.80;99.90
23385;DHT22;11865;45.394;10.978;2023-02-24T00:44:12;7.60;99.90
23385;DHT22;11865;45.394;10.978;2023-02-24T00:46:44;7.60;99.90
23385;DHT22;11865;45.394;10.978;2023-02-24T00:49:16;7.80;99.90
23385;DHT22;11865;45.394;10.978;2023-02-24T00:51:44;7.90;99.90
23385;DHT22;11865;45.394;10.978;2023-02-24T00:54:12;7.90;99.90
23385;DHT22;11865;45.394;10.978;2023-02-24T00:56:42;7.80;99.90
23385;DHT22;11865;45.394;10.978;2023-02-24T00:59:12;7.90;99.90
23385;DHT22;11865;45.394;10.978;2023-02-24T01:01:39;7.90;99.90
23385;DHT22;11865;45.394;10.978;2023-02-24T01:04:07;8.00;99.90
23385;DHT22;11865;45.394;10.978;2023-02-24T01:06:38;8.00;99.90
23385;DHT22;11865;45.394;10.978;2023-02-24T01:09:13;7.80;99.90
23385;DHT22;11865;45.394;10.978;2023-02-24T01:11:42;7.50;99.90
23385;DHT22;11865;45.394;10.978;2023-02-24T01:14:30;7.10;99.90
23385;DHT22;11865;45.394;10.978;2023-02-24T01:16:57;7.10;99.90
23385;DHT22;11865;45.394;10.978;2023-02-24T01:19:28;7.20;99.90
23385;DHT22;11865;45.394;10.978;2023-02-24T01:22:03;7.30;99.90
23385;DHT22;11865;45.394;10.978;2023-02-24T01:24:31;7.20;99.90
23385;DHT22;11865;45.394;10.978;2023-02-24T01:26:59;7.20;99.90
23385;DHT22;11865;45.394;10.978;2023-02-24T01:29:27;7.10;99.90
23385;DHT22;11865;45.394;10.978;2023-02-24T01:31:54;7.20;99.90
23385;DHT22;11865;45.394;10.978;2023-02-24T01:34:25;7.10;99.90
23385;DHT22;11865;45.394;10.978;2023-02-24T01:36:56;6.90;99.90
23385;DHT22;11865;45.394;10.978;2023-02-24T01:39:23;6.90;99.90
23385;DHT22;11865;45.394;10.978;2023-02-24T01:41:52;6.80;99.90
23385;DHT22;11865;45.394;10.978;2023-02-24T01:46:51;6.80;99.90
23385;DHT22;11865;45.394;10.978;2023-02-24T01:52:04;6.70;99.90
23385;DHT22;11865;45.394;10.978;2023-02-24T01:54:33;6.60;99.90
23385;DHT22;11865;45.394;10.978;2023-02-24T01:57:01;6.30;99.90
23385;DHT22;11865;45.394;10.978;2023-02-24T01:59:32;6.40;99.90
23385;DHT22;11865;45.394;10.978;2023-02-24T02:02:02;6.50;99.90
23385;DHT22;11865;45.394;10.978;2023-02-24T02:04:45;6.50;99.90
23385;DHT22;11865;45.394;10.978;2023-02-24T02:09:41;6.50;99.90
23385;DHT22;11865;45.394;10.978;2023-02-24T02:12:10;6.50;99.90
23385;DHT22;11865;45.394;10.978;2023-02-24T02:14:38;6.40;99.90
23385;DHT22;11865;45.394;10.978;2023-02-24T02:27:33;7.00;99.90
23385;DHT22;11865;45.394;10.978;2023-02-24T02:35:25;6.50;99.90
23385;DHT22;11865;45.394;10.978;2023-02-24T02:38:10;6.40;99.90
23385;DHT22;11865;45.394;10.978;2023-02-24T02:40:55;6.40;99.90
23385;DHT22;11865;45.394;10.978;2023-02-24T02:46:12;6.40;99.90
23385;DHT22;11865;45.394;10.978;2023-02-24T02:51:09;6.20;99.90
23385;DHT22;11865;45.394;10.978;2023-02-24T02:56:30;6.10;99.90
23385;DHT22;11865;45.394;10.978;2023-02-24T02:58:58;6.00;99.90
23385;DHT22;11865;45.394;10.978;2023-02-24T03:01:28;6.10;99.90
23385;DHT22;11865;45.394;10.978;2023-02-24T03:04:01;6.10;99.90
23385;DHT22;11865;45.394;10.978;2023-02-24T03:06:35;6.10;99.90
23385;DHT22;11865;45.394;10.978;2023-02-24T03:09:08;6.00;99.90
23385;DHT22;11865;45.394;10.978;2023-02-24T03:11:49;5.90;99.90
23385;DHT22;11865;45.394;10.978;2023-02-24T03:14:24;5.90;99.90
23385;DHT22;11865;45.394;10.978;2023-02-24T03:16:53;5.90;99.90
23385;DHT22;11865;45.394;10.978;2023-02-24T03:19:23;5.90;99.90
23385;DHT22;11865;45.394;10.978;2023-02-24T03:21:58;5.90;99.90
23385;DHT22;11865;45.394;10.978;2023-02-24T03:24:28;6.10;99.90
23385;DHT22;11865;45.394;10.978;2023-02-24T03:27:01;6.60;99.90
23385;DHT22;11865;45.394;10.978;2023-02-24T03:29:46;6.80;99.90
23385;DHT22;11865;45.394;10.978;2023-02-24T03:32:17;6.90;99.90
23385;DHT22;11865;45.394;10.978;2023-02-24T03:34:57;6.70;99.90
23385;DHT22;11865;45.394;10.978;2023-02-24T03:37:27;6.70;99.90
23385;DHT22;11865;45.394;10.978;2023-02-24T03:39:59;6.80;99.90
23385;DHT22;11865;45.394;10.978;2023-02-24T03:42:28;6.80;99.90
23385;DHT22;11865;45.394;10.978;2023-02-24T03:44:56;6.90;99.90
23385;DHT22;11865;45.394;10.978;2023-02-24T03:47:24;6.80;99.90
23385;DHT22;11865;45.394;10.978;2023-02-24T03:49:52;6.70;99.90
23385;DHT22;11865;45.394;10.978;2023-02-24T03:52:28;6.60;99.90
23385;DHT22;11865;45.394;10.978;2023-02-24T03:57:45;6.80;99.90
23385;DHT22;11865;45.394;10.978;2023-02-24T04:00:40;6.90;99.90
23385;DHT22;11865;45.394;10.978;2023-02-24T04:03:13;7.50;99.90
23385;DHT22;11865;45.394;10.978;2023-02-24T04:05:51;7.70;99.90
23385;DHT22;11865;45.394;10.978;2023-02-24T04:08:21;7.80;99.90
23385;DHT22;11865;45.394;10.978;2023-02-24T04:10:53;7.90;99.90
23385;DHT22;11865;45.394;10.978;2023-02-24T04:13:32;8.00;99.90
23385;DHT22;11865;45.394;10.978;2023-02-24T04:16:12;8.00;99.90
23385;DHT22;11865;45.394;10.978;2023-02-24T04:18:45;8.00;99.90
23385;DHT22;11865;45.394;10.978;2023-02-24T04:21:15;8.00;99.90
23385;DHT22;11865;45.394;10.978;2023-02-24T04:23:45;7.90;99.90
23385;DHT22;11865;45.394;10.978;2023-02-24T04:26:14;8.00;99.90
23385;DHT22;11865;45.394;10.978;2023-02-24T04:28:43;8.10;99.90
23385;DHT22;11865;45.394;10.978;2023-02-24T04:31:14;8.00;99.90
23385;DHT22;11865;45.394;10.978;2023-02-24T04:33:44;8.10;99.90
23385;DHT22;11865;45.394;10.978;2023-02-24T04:36:19;8.00;99.90
23385;DHT22;11865;45.394;10.978;2023-02-24T04:38:47;7.60;99.90
23385;DHT22;11865;45.394;10.978;2023-02-24T04:41:16;7.20;99.90
23385;DHT22;11865;45.394;10.978;2023-02-24T04:43:48;6.90;99.90
23385;DHT22;11865;45.394;10.978;2023-02-24T04:46:17;6.70;99.90
23385;DHT22;11865;45.394;10.978;2023-02-24T04:48:44;6.80;99.90
23385;DHT22;11865;45.394;10.978;2023-02-24T04:51:12;6.70;99.90
23385;DHT22;11865;45.394;10.978;2023-02-24T04:53:39;6.50;99.90
23385;DHT22;11865;45.394;10.978;2023-02-24T04:56:07;6.50;99.90
23385;DHT22;11865;45.394;10.978;2023-02-24T04:58:36;6.60;99.90
23385;DHT22;11865;45.394;10.978;2023-02-24T05:01:09;6.80;99.90
23385;DHT22;11865;45.394;10.978;2023-02-24T05:03:37;7.00;99.90
23385;DHT22;11865;45.394;10.978;2023-02-24T05:06:15;7.00;99.90
23385;DHT22;11865;45.394;10.978;2023-02-24T05:08:43;7.10;99.90
23385;DHT22;11865;45.394;10.978;2023-02-24T05:11:11;7.20;99.90
23385;DHT22;11865;45.394;10.978;2023-02-24T05:13:41;7.20;99.90
23385;DHT22;11865;45.394;10.978;2023-02-24T05:16:12;7.10;99.90
23385;DHT22;11865;45.394;10.978;2023-02-24T05:18:40;6.90;99.90
23385;DHT22;11865;45.394;10.978;2023-02-24T05:21:09;7.20;99.90
23385;DHT22;11865;45.394;10.978;2023-02-24T05:23:56;7.10;99.90
23385;DHT22;11865;45.394;10.978;2023-02-24T05:26:25;6.80;99.90
23385;DHT22;11865;45.394;10.978;2023-02-24T05:28:53;6.60;99.90
23385;DHT22;11865;45.394;10.978;2023-02-24T05:31:21;6.50;99.90
23385;DHT22;11865;45.394;10.978;2023-02-24T05:33:51;6.50;99.90
23385;DHT22;11865;45.394;10.978;2023-02-24T05:36:24;6.40;99.90
23385;DHT22;11865;45.394;10.978;2023-02-24T05:38:53;6.30;99.90
23385;DHT22;11865;45.394;10.978;2023-02-24T05:41:39;6.30;99.90
23385;DHT22;11865;45.394;10.978;2023-02-24T05:44:12;6.30;99.90
23385;DHT22;11865;45.394;10.978;2023-02-24T05:46:40;6.50;99.90
23385;DHT22;11865;45.394;10.978;2023-02-24T05:49:15;6.70;99.90
23385;DHT22;11865;45.394;10.978;2023-02-24T05:51:46;6.60;99.90
23385;DHT22;11865;45.394;10.978;2023-02-24T05:54:24;7.00;99.90
23385;DHT22;11865;45.394;10.978;2023-02-24T05:56:56;7.10;99.90
23385;DHT22;11865;45.394;10.978;2023-02-24T05:59:24;7.30;99.90
23385;DHT22;11865;45.394;10.978;2023-02-24T06:01:57;7.40;99.90
23385;DHT22;11865;45.394;10.978;2023-02-24T06:04:26;7.70;99.90
23385;DHT22;11865;45.394;10.978;2023-02-24T06:07:07;8.00;99.90
23385;DHT22;11865;45.394;10.978;2023-02-24T06:09:39;8.30;99.90
23385;DHT22;11865;45.394;10.978;2023-02-24T06:12:11;8.50;99.90
23385;DHT22;11865;45.394;10.978;2023-02-24T06:14:40;8.50;99.90
23385;DHT22;11865;45.394;10.978;2023-02-24T06:17:08;8.50;99.90
23385;DHT22;11865;45.394;10.978;2023-02-24T06:19:35;8.50;99.90
23385;DHT22;11865;45.394;10.978;2023-02-24T06:22:02;8.30;99.90
23385;DHT22;11865;45.394;10.978;2023-02-24T06:24:31;8.10;99.90
23385;DHT22;11865;45.394;10.978;2023-02-24T06:26:59;8.00;99.90
23385;DHT22;11865;45.394;10.978;2023-02-24T06:29:36;8.10;99.90
23385;DHT22;11865;45.394;10.978;2023-02-24T06:32:03;8.10;99.90
23385;DHT22;11865;45.394;10.978;2023-02-24T06:34:37;8.10;99.90
23385;DHT22;11865;45.394;10.978;2023-02-24T06:37:05;8.10;99.90
23385;DHT22;11865;45.394;10.978;2023-02-24T06:39:35;8.10;99.90
23385;DHT22;11865;45.394;10.978;2023-02-24T06:42:03;8.00;99.90
23385;DHT22;11865;45.394;10.978;2023-02-24T06:44:31;8.10;99.90
23385;DHT22;11865;45.394;10.978;2023-02-24T06:47:00;8.00;99.90
23385;DHT22;11865;45.394;10.978;2023-02-24T06:49:27;8.10;99.90
23385;DHT22;11865;45.394;10.978;2023-02-24T06:51:54;8.10;99.90
23385;DHT22;11865;45.394;10.978;2023-02-24T06:54:22;8.10;99.90
23385;DHT22;11865;45.394;10.978;2023-02-24T06:56:49;8.20;99.90
23385;DHT22;11865;45.394;10.978;2023-02-24T06:59:17;8.20;99.90
23385;DHT22;11865;45.394;10.978;2023-02-24T07:01:48;8.30;99.90
23385;DHT22;11865;45.394;10.978;2023-02-24T07:04:16;8.30;99.90
23385;DHT22;11865;45.394;10.978;2023-02-24T07:06:45;8.30;99.90
23385;DHT22;11865;45.394;10.978;2023-02-24T07:09:14;8.40;99.90
23385;DHT22;11865;45.394;10.978;2023-02-24T07:11:43;8.40;99.90
23385;DHT22;11865;45.394;10.978;2023-02-24T07:14:12;8.40;99.90
23385;DHT22;11865;45.394;10.978;2023-02-24T07:16:40;8.40;99.90
23385;DHT22;11865;45.394;10.978;2023-02-24T07:19:12;8.50;99.90
23385;DHT22;11865;45.394;10.978;2023-02-24T07:21:41;8.60;99.90
23385;DHT22;11865;45.394;10.978;2023-02-24T07:24:19;8.60;99.90
23385;DHT22;11865;45.394;10.978;2023-02-24T07:27:00;8.70;99.90
23385;DHT22;11865;45.394;10.978;2023-02-24T07:29:28;8.80;99.90
23385;DHT22;11865;45.394;10.978;2023-02-24T07:31:59;8.80;99.90
23385;DHT22;11865;45.394;10.978;2023-02-24T07:34:29;8.80;99.90
23385;DHT22;11865;45.394;10.978;2023-02-24T07:36:57;8.80;99.90
23385;DHT22;11865;45.394;10.978;2023-02-24T07:39:24;8.70;99.90
23385;DHT22;11865;45.394;10.978;2023-02-24T07:41:52;8.80;99.90
23385;DHT22;11865;45.394;10.978;2023-02-24T07:44:21;8.90;99.90
23385;DHT22;11865;45.394;10.978;2023-02-24T07:46:50;9.00;99.90
23385;DHT22;11865;45.394;10.978;2023-02-24T07:49:19;8.90;99.90
23385;DHT22;11865;45.394;10.978;2023-02-24T07:51:46;8.90;99.90
23385;DHT22;11865;45.394;10.978;2023-02-24T07:54:19;8.90;99.90
23385;DHT22;11865;45.394;10.978;2023-02-24T07:56:47;8.90;99.90
23385;DHT22;11865;45.394;10.978;2023-02-24T07:59:27;8.90;99.90
23385;DHT22;11865;45.394;10.978;2023-02-24T08:01:54;9.00;99.90
23385;DHT22;11865;45.394;10.978;2023-02-24T08:04:23;8.90;99.90
23385;DHT22;11865;45.394;10.978;2023-02-24T08:06:51;9.00;99.90
23385;DHT22;11865;45.394;10.978;2023-02-24T08:09:23;9.00;99.90
23385;DHT22;11865;45.394;10.978;2023-02-24T08:12:12;9.10;99.90
23385;DHT22;11865;45.394;10.978;2023-02-24T08:14:44;9.30;99.90
23385;DHT22;11865;45.394;10.978;2023-02-24T08:17:17;9.20;99.90
23385;DHT22;11865;45.394;10.978;2023-02-24T08:19:46;9.40;99.90
23385;DHT22;11865;45.394;10.978;2023-02-24T08:22:14;9.60;99.90
23385;DHT22;11865;45.394;10.978;2023-02-24T08:24:57;9.70;99.90
23385;DHT22;11865;45.394;10.978;2023-02-24T08:27:33;9.90;99.90
23385;DHT22;11865;45.394;10.978;2023-02-24T08:30:05;10.10;99.90
23385;DHT22;11865;45.394;10.978;2023-02-24T08:35:04;10.40;99.90
23385;DHT22;11865;45.394;10.978;2023-02-24T08:37:32;10.40;99.90
23385;DHT22;11865;45.394;10.978;2023-02-24T08:40:09;10.60;99.90
23385;DHT22;11865;45.394;10.978;2023-02-24T08:42:57;10.70;99.90
23385;DHT22;11865;45.394;10.978;2023-02-24T08:45:25;10.80;99.90
23385;DHT22;11865;45.394;10.978;2023-02-24T08:47:54;10.90;99.90
23385;DHT22;11865;45.394;10.978;2023-02-24T08:50:27;11.10;99.90
23385;DHT22;11865;45.394;10.978;2023-02-24T08:52:57;11.20;99.90
23385;DHT22;11865;45.394;10.978;2023-02-24T08:55:24;11.40;99.90
23385;DHT22;11865;45.394;10.978;2023-02-24T08:57:56;11.60;99.90
23385;DHT22;11865;45.394;10.978;2023-02-24T09:00:27;11.70;99.90
23385;DHT22;11865;45.394;10.978;2023-02-24T09:03:15;11.60;99.90
23385;DHT22;11865;45.394;10.978;2023-02-24T09:05:57;11.50;99.90
23385;DHT22;11865;45.394;10.978;2023-02-24T09:08:25;11.50;99.90
23385;DHT22;11865;45.394;10.978;2023-02-24T09:10:59;11.50;99.90
23385;DHT22;11865;45.394;10.978;2023-02-24T09:13:26;11.50;99.90
23385;DHT22;11865;45.394;10.978;2023-02-24T09:15:59;11.50;99.90
23385;DHT22;11865;45.394;10.978;2023-02-24T09:18:28;11.70;99.90
23385;DHT22;11865;45.394;10.978;2023-02-24T09:21:08;11.80;99.90
23385;DHT22;11865;45.394;10.978;2023-02-24T09:23:54;12.00;99.90
23385;DHT22;11865;45.394;10.978;2023-02-24T09:26:21;11.70;99.90
23385;DHT22;11865;45.394;10.978;2023-02-24T09:28:49;11.80;99.90
23385;DHT22;11865;45.394;10.978;2023-02-24T09:31:20;11.70;99.90
23385;DHT22;11865;45.394;10.978;2023-02-24T09:34:07;11.70;99.90
23385;DHT22;11865;45.394;10.978;2023-02-24T09:36:36;11.70;99.90
23385;DHT22;11865;45.394;10.978;2023-02-24T09:39:11;11.80;99.90
23385;DHT22;11865;45.394;10.978;2023-02-24T09:44:25;12.00;99.90
23385;DHT22;11865;45.394;10.978;2023-02-24T09:46:54;11.80;99.90
23385;DHT22;11865;45.394;10.978;2023-02-24T09:49:32;12.00;99.90
23385;DHT22;11865;45.394;10.978;2023-02-24T09:52:09;12.10;99.90
23385;DHT22;11865;45.394;10.978;2023-02-24T09:54:45;12.20;99.90
23385;DHT22;11865;45.394;10.978;2023-02-24T09:57:31;12.30;99.90
23385;DHT22;11865;45.394;10.978;2023-02-24T10:00:21;12.40;99.90
23385;DHT22;11865;45.394;10.978;2023-02-24T10:02:56;12.50;99.90
23385;DHT22;11865;45.394;10.978;2023-02-24T10:05:36;12.60;99.90
23385;DHT22;11865;45.394;10.978;2023-02-24T10:08:16;12.50;99.90
23385;DHT22;11865;45.394;10.978;2023-02-24T10:10:51;12.90;99.90
23385;DHT22;11865;45.394;10.978;2023-02-24T10:13:39;13.10;99.90
23385;DHT22;11865;45.394;10.978;2023-02-24T10:16:10;13.10;99.90
23385;DHT22;11865;45.394;10.978;2023-02-24T10:18:46;13.10;99.90
23385;DHT22;11865;45.394;10.978;2023-02-24T10:32:17;13.90;99.90
23385;DHT22;11865;45.394;10.978;2023-02-24T10:34:50;14.10;99.90
23385;DHT22;11865;45.394;10.978;2023-02-24T10:37:22;13.60;99.90
23385;DHT22;11865;45.394;10.978;2023-02-24T10:39:56;13.90;99.90
23385;DHT22;11865;45.394;10.978;2023-02-24T10:44:51;14.30;99.90
23385;DHT22;11865;45.394;10.978;2023-02-24T10:47:48;14.30;99.90
23385;DHT22;11865;45.394;10.978;2023-02-24T10:50:20;14.20;99.90
23385;DHT22;11865;45.394;10.978;2023-02-24T10:52:50;14.40;99.90
23385;DHT22;11865;45.394;10.978;2023-02-24T10:55:44;14.00;99.90
23385;DHT22;11865;45.394;10.978;2023-02-24T10:58:26;14.10;99.90
23385;DHT22;11865;45.394;10.978;2023-02-24T11:01:18;14.30;99.90
23385;DHT22;11865;45.394;10.978;2023-02-24T11:03:54;14.30;99.90
23385;DHT22;11865;45.394;10.978;2023-02-24T11:06:38;14.70;99.90
23385;DHT22;11865;45.394;10.978;2023-02-24T11:09:19;14.90;99.90
23385;DHT22;11865;45.394;10.978;2023-02-24T11:12:03;15.00;99.90
23385;DHT22;11865;45.394;10.978;2023-02-24T11:14:52;14.80;99.90
23385;DHT22;11865;45.394;10.978;2023-02-24T11:17:54;14.20;99.90
23385;DHT22;11865;45.394;10.978;2023-02-24T11:20:29;14.50;99.90
23385;DHT22;11865;45.394;10.978;2023-02-24T11:23:58;14.30;99.90
23385;DHT22;11865;45.394;10.978;2023-02-24T11:26:18;14.50;99.90
23385;DHT22;11865;45.394;10.978;2023-02-24T11:34:41;15.10;99.90
23385;DHT22;11865;45.394;10.978;2023-02-24T11:41:58;14.70;99.90
23385;DHT22;11865;45.394;10.978;2023-02-24T11:45:03;14.90;99.90
23385;DHT22;11865;45.394;10.978;2023-02-24T11:47:21;14.80;99.90
23385;DHT22;11865;45.394;10.978;2023-02-24T11:49:52;14.60;99.90
23385;DHT22;11865;45.394;10.978;2023-02-24T11:52:24;14.40;99.90
23385;DHT22;11865;45.394;10.978;2023-02-24T11:54:55;14.40;99.90
23385;DHT22;11865;45.394;10.978;2023-02-24T11:57:57;14.60;99.90
23385;DHT22;11865;45.394;10.978;2023-02-24T12:00:18;14.70;99.90
23385;DHT22;11865;45.394;10.978;2023-02-24T12:02:55;14.90;99.90
23385;DHT22;11865;45.394;10.978;2023-02-24T12:05:26;14.80;99.90
23385;DHT22;11865;45.394;10.978;2023-02-24T12:10:43;14.90;99.90
23385;DHT22;11865;45.394;10.978;2023-02-24T12:13:19;15.20;99.90
23385;DHT22;11865;45.394;10.978;2023-02-24T12:18:36;15.80;99.90
23385;DHT22;11865;45.394;10.978;2023-02-24T12:23:36;15.80;99.90
23385;DHT22;11865;45.394;10.978;2023-02-24T12:28:57;15.70;99.90
23385;DHT22;11865;45.394;10.978;2023-02-24T12:31:42;15.60;99.90
23385;DHT22;11865;45.394;10.978;2023-02-24T12:34:18;15.40;99.90
23385;DHT22;11865;45.394;10.978;2023-02-24T12:36:58;15.30;99.90
23385;DHT22;11865;45.394;10.978;2023-02-24T12:44:42;15.70;99.90
23385;DHT22;11865;45.394;10.978;2023-02-24T12:47:15;15.60;99.90
23385;DHT22;11865;45.394;10.978;2023-02-24T12:52:23;15.40;99.90
23385;DHT22;11865;45.394;10.978;2023-02-24T13:00:10;15.50;99.90
23385;DHT22;11865;45.394;10.978;2023-02-24T13:03:27;15.60;99.90
23385;DHT22;11865;45.394;10.978;2023-02-24T13:05:28;15.20;99.90
23385;DHT22;11865;45.394;10.978;2023-02-24T13:10:41;15.60;99.90
23385;DHT22;11865;45.394;10.978;2023-02-24T13:13:16;15.50;99.90
23385;DHT22;11865;45.394;10.978;2023-02-24T13:15:49;15.60;99.90
23385;DHT22;11865;45.394;10.978;2023-02-24T13:18:27;15.60;99.90
23385;DHT22;11865;45.394;10.978;2023-02-24T13:23:41;15.80;99.90
23385;DHT22;11865;45.394;10.978;2023-02-24T13:26:08;15.90;99.90
23385;DHT22;11865;45.394;10.978;2023-02-24T13:28:36;16.00;99.90
23385;DHT22;11865;45.394;10.978;2023-02-24T13:31:05;16.20;99.90
23385;DHT22;11865;45.394;10.978;2023-02-24T13:33:34;16.30;99.90
23385;DHT22;11865;45.394;10.978;2023-02-24T13:36:21;16.30;99.90
23385;DHT22;11865;45.394;10.978;2023-02-24T13:39:36;16.40;99.90
23385;DHT22;11865;45.394;10.978;2023-02-24T13:41:37;16.20;99.90
23385;DHT22;11865;45.394;10.978;2023-02-24T13:52:06;15.50;99.90
23385;DHT22;11865;45.394;10.978;2023-02-24T14:02:27;15.00;99.90
23385;DHT22;11865;45.394;10.978;2023-02-24T14:04:56;15.10;99.90
23385;DHT22;11865;45.394;10.978;2023-02-24T14:07:35;15.20;99.90
23385;DHT22;11865;45.394;10.978;2023-02-24T14:10:05;15.50;99.90
23385;DHT22;11865;45.394;10.978;2023-02-24T14:12:40;15.30;99.90
23385;DHT22;11865;45.394;10.978;2023-02-24T14:15:11;15.40;99.90
23385;DHT22;11865;45.394;10.978;2023-02-24T14:17:38;15.30;99.90
23385;DHT22;11865;45.394;10.978;2023-02-24T14:22:43;15.40;99.90
23385;DHT22;11865;45.394;10.978;2023-02-24T14:25:11;15.10;99.90
23385;DHT22;11865;45.394;10.978;2023-02-24T14:27:38;15.30;99.90
23385;DHT22;11865;45.394;10.978;2023-02-24T14:30:06;15.20;99.90
23385;DHT22;11865;45.394;10.978;2023-02-24T14:32:33;15.30;99.90
23385;DHT22;11865;45.394;10.978;2023-02-24T14:35:01;15.40;99.90
23385;DHT22;11865;45.394;10.978;2023-02-24T14:37:29;15.40;99.90
23385;DHT22;11865;45.394;10.978;2023-02-24T14:39:57;15.40;99.90
23385;DHT22;11865;45.394;10.978;2023-02-24T14:42:25;15.60;99.90
23385;DHT22;11865;45.394;10.978;2023-02-24T14:44:54;15.70;99.90
23385;DHT22;11865;45.394;10.978;2023-02-24T14:47:23;15.60;99.90
23385;DHT22;11865;45.394;10.978;2023-02-24T14:49:51;15.40;99.90
23385;DHT22;11865;45.394;10.978;2023-02-24T14:52:22;15.30;99.90
23385;DHT22;11865;45.394;10.978;2023-02-24T14:57:25;15.30;99.90
23385;DHT22;11865;45.394;10.978;2023-02-24T15:00:01;15.40;99.90
23385;DHT22;11865;45.394;10.978;2023-02-24T15:02:38;15.50;99.90
23385;DHT22;11865;45.394;10.978;2023-02-24T15:05:07;15.40;99.90
23385;DHT22;11865;45.394;10.978;2023-02-24T15:07:35;15.50;99.90
23385;DHT22;11865;45.394;10.978;2023-02-24T15:10:03;15.50;99.90
23385;DHT22;11865;45.394;10.978;2023-02-24T15:12:32;15.60;99.90
23385;DHT22;11865;45.394;10.978;2023-02-24T15:15:04;15.60;99.90
23385;DHT22;11865;45.394;10.978;2023-02-24T15:17:36;15.60;99.90
23385;DHT22;11865;45.394;10.978;2023-02-24T15:20:23;15.60;99.90
23385;DHT22;11865;45.394;10.978;2023-02-24T15:22:50;15.40;99.90
23385;DHT22;11865;45.394;10.978;2023-02-24T15:25:20;15.50;99.90
23385;DHT22;11865;45.394;10.978;2023-02-24T15:27:58;15.50;99.90
23385;DHT22;11865;45.394;10.978;2023-02-24T15:33:03;15.30;99.90
23385;DHT22;11865;45.394;10.978;2023-02-24T15:35:32;15.10;99.90
23385;DHT22;11865;45.394;10.978;2023-02-24T15:38:00;15.10;99.90
23385;DHT22;11865;45.394;10.978;2023-02-24T15:40:28;15.20;99.90
23385;DHT22;11865;45.394;10.978;2023-02-24T15:42:57;15.20;99.90
23385;DHT22;11865;45.394;10.978;2023-02-24T15:45:27;15.10;99.90
23385;DHT22;11865;45.394;10.978;2023-02-24T15:47:58;15.10;99.90
23385;DHT22;11865;45.394;10.978;2023-02-24T15:50:26;15.10;99.90
23385;DHT22;11865;45.394;10.978;2023-02-24T15:52:57;14.90;99.90
23385;DHT22;11865;45.394;10.978;2023-02-24T15:55:25;14.90;99.90
23385;DHT22;11865;45.394;10.978;2023-02-24T15:57:58;14.80;99.90
23385;DHT22;11865;45.394;10.978;2023-02-24T16:00:26;14.80;99.90
23385;DHT22;11865;45.394;10.978;2023-02-24T16:02:53;14.80;99.90
23385;DHT22;11865;45.394;10.978;2023-02-24T16:05:20;14.70;99.90
23385;DHT22;11865;45.394;10.978;2023-02-24T16:07:48;14.70;99.90
23385;DHT22;11865;45.394;10.978;2023-02-24T16:10:23;14.70;99.90
23385;DHT22;11865;45.394;10.978;2023-02-24T16:12:52;14.70;99.90
23385;DHT22;11865;45.394;10.978;2023-02-24T16:15:21;14.70;99.90
23385;DHT22;11865;45.394;10.978;2023-02-24T16:17:49;14.70;99.90
23385;DHT22;11865;45.394;10.978;2023-02-24T16:20:25;14.60;99.90
23385;DHT22;11865;45.394;10.978;2023-02-24T16:22:58;14.60;99.90
23385;DHT22;11865;45.394;10.978;2023-02-24T16:25:26;14.50;99.90
23385;DHT22;11865;45.394;10.978;2023-02-24T16:27:54;14.50;99.90
23385;DHT22;11865;45.394;10.978;2023-02-24T16:30:25;14.40;99.90
23385;DHT22;11865;45.394;10.978;2023-02-24T16:32:52;14.30;99.90
23385;DHT22;11865;45.394;10.978;2023-02-24T16:35:20;14.10;99.90
23385;DHT22;11865;45.394;10.978;2023-02-24T16:37:47;13.90;99.90
23385;DHT22;11865;45.394;10.978;2023-02-24T16:40:22;13.80;99.90
23385;DHT22;11865;45.394;10.978;2023-02-24T16:42:50;13.70;99.90
23385;DHT22;11865;45.394;10.978;2023-02-24T16:45:21;13.60;99.90
23385;DHT22;11865;45.394;10.978;2023-02-24T16:47:51;13.60;99.90
23385;DHT22;11865;45.394;10.978;2023-02-24T16:50:20;13.60;99.90
23385;DHT22;11865;45.394;10.978;2023-02-24T16:52:48;13.60;99.90
23385;DHT22;11865;45.394;10.978;2023-02-24T16:55:16;13.60;99.90
23385;DHT22;11865;45.394;10.978;2023-02-24T16:57:43;13.60;99.90
23385;DHT22;11865;45.394;10.978;2023-02-24T17:00:11;13.70;99.90
23385;DHT22;11865;45.394;10.978;2023-02-24T17:02:40;13.60;99.90
23385;DHT22;11865;45.394;10.978;2023-02-24T17:07:46;13.60;99.90
23385;DHT22;11865;45.394;10.978;2023-02-24T17:10:14;13.60;99.90
23385;DHT22;11865;45.394;10.978;2023-02-24T17:12:41;13.60;99.90
23385;DHT22;11865;45.394;10.978;2023-02-24T17:15:19;13.40;99.90
23385;DHT22;11865;45.394;10.978;2023-02-24T17:17:46;13.40;99.90
23385;DHT22;11865;45.394;10.978;2023-02-24T17:20:14;13.40;99.90
23385;DHT22;11865;45.394;10.978;2023-02-24T17:22:42;13.40;99.90
23385;DHT22;11865;45.394;10.978;2023-02-24T17:25:17;13.30;99.90
23385;DHT22;11865;45.394;10.978;2023-02-24T17:27:44;13.30;99.90
23385;DHT22;11865;45.394;10.978;2023-02-24T17:30:13;13.30;99.90
23385;DHT22;11865;45.394;10.978;2023-02-24T17:32:41;13.30;99.90
23385;DHT22;11865;45.394;10.978;2023-02-24T17:35:08;13.40;99.90
23385;DHT22;11865;45.394;10.978;2023-02-24T17:37:35;13.40;99.90
23385;DHT22;11865;45.394;10.978;2023-02-24T17:40:03;13.30;99.90
23385;DHT22;11865;45.394;10.978;2023-02-24T17:42:33;13.30;99.90
23385;DHT22;11865;45.394;10.978;2023-02-24T17:45:00;13.30;99.90
23385;DHT22;11865;45.394;10.978;2023-02-24T17:47:28;13.30;99.90
23385;DHT22;11865;45.394;10.978;2023-02-24T17:49:56;13.20;99.90
23385;DHT22;11865;45.394;10.978;2023-02-24T17:52:23;13.30;99.90
23385;DHT22;11865;45.394;10.978;2023-02-24T17:54:50;13.30;99.90